Bookmark and Share
Track history (hours):
 

Susan Ann

More information available from US FCC via Universal Licensing System and Coast Guard Vessel Documentation Center.

Last reported at 2014-Apr-24 00:22 UTC. Time now 2014-Apr-24 04:30 UTC.
Position N 41°09' W 072°14'.

Length 72 m; draft 4 m.

Type: Passenger vessel. MMSI: 367354350.

NotesDate/timePositionNaut miles runAvg speedWind from/ knotsBaromVisibWave heightAir tempDewpointWater temp
2014-Apr-24 00:22N 41°09' W 072°14'8 9.9
2014-Apr-23 23:33N 41°16' W 072°08'6 5.2
2014-Apr-23 22:25N 41°21' W 072°05'910.8
2014-Apr-23 21:33N 41°13' W 072°10'5 4.3
2014-Apr-23 20:30N 41°09' W 072°14'1210.0
2014-Apr-23 19:17N 41°19' W 072°05'2 3.1
2014-Apr-23 18:33N 41°21' W 072°06'9 9.5
2014-Apr-23 17:33N 41°13' W 072°11'4 4.5
2014-Apr-23 16:33N 41°09' W 072°14'8 8.1
2014-Apr-23 15:33N 41°16' W 072°08'6 6.0
2014-Apr-23 14:33N 41°21' W 072°06'8 8.4
2014-Apr-23 13:33N 41°14' W 072°10'5 5.4
2014-Apr-23 12:34N 41°09' W 072°14'8 8.3
2014-Apr-23 11:33N 41°16' W 072°08'6 5.8
2014-Apr-23 10:33N 41°21' W 072°06'0 0.0
2014-Apr-23 00:18N 41°21' W 072°06'810.2
2014-Apr-22 23:34N 41°14' W 072°09'6 6.5
2014-Apr-22 22:33N 41°09' W 072°14'8 8.4
2014-Apr-22 21:33N 41°16' W 072°08'6 5.7
2014-Apr-22 20:33N 41°21' W 072°06'10 9.0
2014-Apr-22 19:25N 41°12' W 072°12'4 4.2
2014-Apr-22 18:33N 41°09' W 072°14'8 8.2
2014-Apr-22 17:33N 41°16' W 072°08'6 5.9
2014-Apr-22 16:34N 41°21' W 072°06'10 9.3
2014-Apr-22 15:30N 41°12' W 072°11'3 2.3
2014-Apr-22 14:12N 41°10' W 072°13'711.2
2014-Apr-22 13:33N 41°16' W 072°08'6 6.0
2014-Apr-22 12:34N 41°21' W 072°06'9 9.0
2014-Apr-22 11:34N 41°13' W 072°10'5 4.9
2014-Apr-22 10:33N 41°09' W 072°14'0 0.0
2014-Apr-22 00:33N 41°09' W 072°14'8 8.4
2014-Apr-21 23:33N 41°16' W 072°08'6 5.8
2014-Apr-21 22:33N 41°21' W 072°06'9 9.1
2014-Apr-21 21:34N 41°13' W 072°10'5 4.9
2014-Apr-21 20:33N 41°09' W 072°14'1010.2
2014-Apr-21 19:33N 41°17' W 072°06'4 4.2
2014-Apr-21 18:34N 41°21' W 072°06'10 9.7
2014-Apr-21 17:33N 41°13' W 072°11'4 4.1
2014-Apr-21 16:33N 41°09' W 072°14'9 9.4
2014-Apr-21 15:34N 41°17' W 072°07'5 4.8
2014-Apr-21 14:34N 41°21' W 072°06'9 9.5
2014-Apr-21 13:33N 41°13' W 072°11'4 4.4
2014-Apr-21 12:33N 41°09' W 072°14'9 8.8
2014-Apr-21 11:33N 41°16' W 072°07'5 5.3
2014-Apr-21 10:33N 41°21' W 072°06'0 0.0
2014-Apr-21 01:27N 41°21' W 072°06'9 9.7
2014-Apr-21 00:33N 41°13' W 072°10'5 5.3
2014-Apr-20 23:34N 41°09' W 072°14'8 8.1
2014-Apr-20 22:33N 41°16' W 072°08'6 5.9
2014-Apr-20 21:33N 41°21' W 072°06'9 9.0
2014-Apr-20 20:34N 41°13' W 072°10'5 5.0
2014-Apr-20 19:33N 41°09' W 072°14'9 9.1
2014-Apr-20 18:33N 41°16' W 072°07'5 5.0
2014-Apr-20 17:33N 41°21' W 072°06'8 8.5
2014-Apr-20 16:33N 41°14' W 072°10'5 5.5
2014-Apr-20 15:33N 41°09' W 072°14'9 8.6
2014-Apr-20 14:34N 41°16' W 072°08'5 5.5
2014-Apr-20 13:33N 41°21' W 072°06'9 8.6
2014-Apr-20 12:34N 41°13' W 072°10'5 5.4
2014-Apr-20 11:33N 41°09' W 072°14'0 0.0
2014-Apr-20 10:33N 41°09' W 072°14'0 0.0
2014-Apr-20 00:27N 41°09' W 072°14'8 9.3
2014-Apr-19 23:33N 41°16' W 072°08'6 5.8
2014-Apr-19 22:33N 41°21' W 072°06'9 9.4
2014-Apr-19 21:33N 41°13' W 072°10'5 4.6
2014-Apr-19 20:33N 41°09' W 072°14'10 9.7
2014-Apr-19 19:33N 41°17' W 072°06'5 4.7
2014-Apr-19 18:33N 41°21' W 072°06'9 8.5
2014-Apr-19 17:33N 41°14' W 072°10'5 5.4
2014-Apr-19 16:33N 41°09' W 072°14'9 8.5
2014-Apr-19 15:33N 41°16' W 072°07'6 5.6
2014-Apr-19 14:33N 41°21' W 072°06'9 8.9
2014-Apr-19 13:34N 41°13' W 072°10'5 5.1
2014-Apr-19 12:34N 41°09' W 072°14'8 8.1
2014-Apr-19 11:33N 41°16' W 072°08'6 6.0
2014-Apr-19 10:33N 41°21' W 072°06'0 0.0
2014-Apr-19 09:33N 41°21' W 072°06'5 0.7
2014-Apr-19 01:33N 41°16' W 072°07'9 8.9
2014-Apr-19 00:34N 41°09' W 072°14'8 8.0
2014-Apr-18 23:33N 41°16' W 072°08'6 6.0
2014-Apr-18 22:33N 41°21' W 072°06'9 9.1
2014-Apr-18 21:33N 41°13' W 072°10'5 4.8
2014-Apr-18 20:33N 41°09' W 072°14'8 8.3
2014-Apr-18 19:33N 41°16' W 072°08'6 5.9
2014-Apr-18 18:34N 41°21' W 072°06'8 8.1
2014-Apr-18 17:33N 41°14' W 072°10'6 5.9
2014-Apr-18 16:33N 41°09' W 072°14'9 8.5
2014-Apr-18 15:33N 41°16' W 072°08'6 5.5
2014-Apr-18 14:33N 41°21' W 072°06'9 9.1
2014-Apr-18 13:33N 41°13' W 072°11'5 4.8
2014-Apr-18 12:33N 41°09' W 072°14'8 8.4
2014-Apr-18 11:33N 41°16' W 072°07'6 5.7
2014-Apr-18 10:33N 41°21' W 072°06'0 0.0
2014-Apr-18 02:18N 41°21' W 072°06'6 8.3
2014-Apr-18 01:34N 41°15' W 072°08'8 7.9
2014-Apr-18 00:33N 41°09' W 072°14'9 9.0
2014-Apr-17 23:33N 41°16' W 072°07'5 5.2
2014-Apr-17 22:34N 41°21' W 072°06'1110.7
2014-Apr-17 21:34N 41°12' W 072°12'3 3.1
2014-Apr-17 20:33N 41°09' W 072°14'10 9.6
2014-Apr-17 19:33N 41°17' W 072°06'5 4.6
2014-Apr-17 18:33N 41°21' W 072°06'9 9.2
2014-Apr-17 17:33N 41°13' W 072°11'5 4.7
2014-Apr-17 16:33N 41°09' W 072°14'1010.3
2014-Apr-17 15:34N 41°17' W 072°06'4 3.9
2014-Apr-17 14:34N 41°21' W 072°05'1110.8
2014-Apr-17 13:33N 41°12' W 072°12'3 2.9
2014-Apr-17 12:33N 41°09' W 072°14'8 8.3
2014-Apr-17 11:34N 41°16' W 072°08'6 5.7
2014-Apr-17 10:34N 41°21' W 072°06'0 0.0
2014-Apr-17 00:22N 41°21' W 072°06'810.0
2014-Apr-16 23:33N 41°14' W 072°09'6 6.0
2014-Apr-16 22:33N 41°09' W 072°14'8 8.0
2014-Apr-16 21:34N 41°15' W 072°08'6 6.1
2014-Apr-16 20:33N 41°21' W 072°06'9 9.5
2014-Apr-16 19:33N 41°13' W 072°10'4 4.5
2014-Apr-16 18:33N 41°09' W 072°14'9 8.9
2014-Apr-16 17:33N 41°16' W 072°07'5 5.3
2014-Apr-16 16:33N 41°21' W 072°06'9 8.9
2014-Apr-16 15:34N 41°13' W 072°10'5 5.0
2014-Apr-16 14:33N 41°09' W 072°14'8 8.1
2014-Apr-16 13:34N 41°16' W 072°08'6 6.0
2014-Apr-16 12:34N 41°21' W 072°06'10 9.7
2014-Apr-16 11:33N 41°13' W 072°11'4 4.2
2014-Apr-16 10:33N 41°09' W 072°14'0 0.0
2014-Apr-16 00:33N 41°09' W 072°14'8 8.1
2014-Apr-15 23:33N 41°16' W 072°08'6 5.9
2014-Apr-15 22:33N 41°21' W 072°06'9 8.6
2014-Apr-15 21:33N 41°13' W 072°10'5 5.3
2014-Apr-15 20:33N 41°09' W 072°14'9 9.1
2014-Apr-15 19:34N 41°16' W 072°07'5 5.2
2014-Apr-15 18:34N 41°21' W 072°06'8 8.4
2014-Apr-15 17:33N 41°14' W 072°10'6 5.6
2014-Apr-15 16:33N 41°09' W 072°14'8 8.4
2014-Apr-15 15:33N 41°16' W 072°08'6 5.7
2014-Apr-15 14:33N 41°21' W 072°06'9 4.5
2014-Apr-15 12:34N 41°13' W 072°10'5 5.0
2014-Apr-15 11:34N 41°09' W 072°14'9 8.9
2014-Apr-15 10:34N 41°16' W 072°07'5 5.3
2014-Apr-15 09:34N 41°21' W 072°06'0 0.0
2014-Apr-14 23:31N 41°21' W 072°06'9 9.6
2014-Apr-14 22:34N 41°13' W 072°10'5 4.8
2014-Apr-14 21:34N 41°09' W 072°14'8 8.3
2014-Apr-14 20:34N 41°16' W 072°08'6 5.7
2014-Apr-14 19:34N 41°21' W 072°06'9 9.1
2014-Apr-14 18:34N 41°13' W 072°10'5 4.9
2014-Apr-14 17:33N 41°09' W 072°14'9 8.8
2014-Apr-14 16:34N 41°16' W 072°07'5 5.3
2014-Apr-14 15:32N 41°21' W 072°06'9 9.0
2014-Apr-14 14:34N 41°13' W 072°10'5 5.2
2014-Apr-14 13:34N 41°09' W 072°14'14 6.9
2014-Apr-14 11:34N 41°21' W 072°06'8 8.3
2014-Apr-14 10:34N 41°14' W 072°10'6 5.6
2014-Apr-14 09:33N 41°09' W 072°14'  

Dump ship's entire track history

sailing weather and tide predictions

Susan Ann — WCY5700 — position and weather